Accueil
METAR-TAF:

METAR-TAF

Aéroports :

Arad, Roumanie

latitude: 46-12N, longitude: 021-24E, altitude: 117 m

Observation

Le bulletin a été fait il y a 19 minutes, à 11:00 UTC
Vent 2 kt de direction variable
Température 21°C
Humidité 73%
Pression 1014 hPa
Visibilité 10 km ou plus
Nuages fragmentés à une hauteur de 2900 ft
Quelques nuages à une hauteur de 3500 ft, Cumulonimbus.

METAR: LRAR 131100Z VRB02KT 9999 BKN029 FEW035CB 21/16 Q1014

Heure: 14:19 (11:19 UTC)

Prévision

Le bulletin a été fait il y a 3 heures et 19 minutes, à 08:00 UTC
Prévision valable du 13 à 09 UTC au 13 à 18 UTC
Vent 6 kt de ouest
Visibilité 10 km ou plus
Nuages fragmentés à une hauteur de 3500 ft
Probabilité 40% :
Temporairement
du 13 à 15 UTC au 13 à 18 UTC
Visibilité: 5000 m
Nuages épars à une hauteur de 4000 ft, Cumulonimbus.
orage, pluie,

TAF: LRAR 130800Z 1309/1318 27006KT 9999 BKN035 PROB40 TEMPO 1315/1318 5000 TSRA SCT040CB

Observations et prévisions météorologiques de plus de 4000 aéroports (messages METAR et TAF).

Les stations disponibles sont représentées par des disques jaunes et rouges sur la carte.

Passer la souris dessus pour voir le nom de la station.

Cliquer dessus pour voir les observations et prévisions météorologiques.

Pour changer de carte: cliquez sur les boutons verts avec une croix noire pour zoomer, sur le bouton vert avec un tiret pour effectuer un zoom arrière, ou sur les flèches vertes pour les cartes adjacentes.


METAR-TAF: